createdAt,value
2018-05-02T00:00:15.738Z,0.00
2018-05-02T00:01:15.653Z,0.00
2018-05-02T00:02:15.575Z,0.00
2018-05-02T00:03:15.513Z,0.00
2018-05-02T00:04:15.402Z,0.00
2018-05-02T00:05:15.326Z,0.00
2018-05-02T00:06:15.239Z,0.00
2018-05-02T00:07:15.164Z,0.00
2018-05-02T00:08:15.076Z,0.00
2018-05-02T00:09:15.000Z,0.00
2018-05-02T00:10:14.914Z,0.00
2018-05-02T00:52:57.518Z,0.00
2018-05-02T00:53:57.443Z,0.00
2018-05-02T00:54:57.360Z,0.00
2018-05-02T00:55:57.271Z,0.00
2018-05-02T00:56:57.182Z,0.00
2018-05-02T00:57:57.105Z,0.00
2018-05-02T00:58:57.018Z,0.00
2018-05-02T00:59:56.944Z,0.00
2018-05-02T01:00:56.857Z,0.00
2018-05-02T01:01:56.780Z,0.00
2018-05-02T01:02:56.695Z,0.00
2018-05-02T01:03:56.606Z,0.00
2018-05-02T01:04:56.531Z,0.00
2018-05-02T01:05:56.446Z,0.00
2018-05-02T01:06:56.370Z,0.00
2018-05-02T01:07:56.281Z,0.00
2018-05-02T01:08:56.195Z,0.00
2018-05-02T01:09:56.119Z,0.00
2018-05-02T01:10:56.034Z,0.00
2018-05-02T01:11:55.971Z,0.00
2018-05-02T01:12:55.872Z,0.00
2018-05-02T01:13:55.782Z,0.00
2018-05-02T01:14:55.708Z,0.00
2018-05-02T01:15:55.621Z,0.00
2018-05-02T01:16:55.545Z,0.00
2018-05-02T01:17:55.457Z,0.00
2018-05-02T01:18:55.371Z,0.00
2018-05-02T01:19:55.296Z,0.00
2018-05-02T01:20:55.209Z,0.00
2018-05-02T01:21:55.134Z,0.00
2018-05-02T01:22:55.053Z,0.00
2018-05-02T01:23:54.959Z,0.00
2018-05-02T01:24:54.882Z,0.00
2018-05-02T01:25:54.800Z,0.00
2018-05-02T01:26:54.721Z,0.00
2018-05-02T01:27:54.633Z,0.00
2018-05-02T01:28:54.559Z,0.00
2018-05-02T01:29:54.472Z,0.00
2018-05-02T01:30:54.383Z,0.00
2018-05-02T01:31:54.322Z,0.00
2018-05-02T01:32:54.221Z,0.00
2018-05-02T01:33:54.135Z,0.00
2018-05-02T01:34:54.059Z,0.00
2018-05-02T01:35:53.972Z,0.00
2018-05-02T01:36:53.955Z,0.00
2018-05-02T01:37:53.823Z,0.00
2018-05-02T01:38:53.723Z,0.00
2018-05-02T01:39:53.654Z,0.00
2018-05-02T01:40:53.560Z,0.00
2018-05-02T01:41:53.485Z,0.00
2018-05-02T01:42:53.399Z,0.00
2018-05-02T01:43:53.310Z,0.00
2018-05-02T01:44:53.235Z,0.00
2018-05-02T01:45:53.150Z,0.00
2018-05-02T01:46:53.062Z,0.00
2018-05-02T01:47:52.989Z,0.00
2018-05-02T01:48:52.900Z,0.00
2018-05-02T01:49:52.824Z,0.00
2018-05-02T01:50:52.736Z,0.00
2018-05-02T01:51:52.660Z,0.00
2018-05-02T01:52:52.578Z,0.00
2018-05-02T01:53:52.486Z,0.00
2018-05-02T01:54:52.411Z,0.00
2018-05-02T01:55:52.325Z,0.00
2018-05-02T01:56:52.238Z,0.00
2018-05-02T01:57:52.165Z,0.00
2018-05-02T01:58:52.079Z,0.00
2018-05-02T01:59:51.999Z,0.00
2018-05-02T02:00:51.912Z,0.00
2018-05-02T02:01:51.825Z,0.00
2018-05-02T02:02:51.751Z,0.00
2018-05-02T02:03:51.662Z,0.00
2018-05-02T02:04:51.587Z,0.00
2018-05-02T02:05:51.500Z,0.00
2018-05-02T02:06:51.412Z,0.00
2018-05-02T02:07:51.339Z,0.00
2018-05-02T02:08:51.253Z,0.00
2018-05-02T02:09:51.165Z,0.00
2018-05-02T02:10:51.088Z,0.00
2018-05-02T02:11:51.002Z,0.00
2018-05-02T02:12:50.926Z,0.00
2018-05-02T02:13:50.838Z,0.00
2018-05-02T02:14:50.752Z,0.00
2018-05-02T02:15:50.677Z,0.00
2018-05-02T02:16:50.589Z,0.00
2018-05-02T02:17:50.514Z,0.00
2018-05-02T02:18:50.429Z,0.00
2018-05-02T02:19:50.339Z,0.00
2018-05-02T02:20:50.266Z,0.00
2018-05-02T02:21:50.178Z,0.00
2018-05-02T02:22:50.091Z,0.00
2018-05-02T02:23:50.014Z,0.00
2018-05-02T02:24:49.940Z,0.00
2018-05-02T02:25:49.852Z,0.00
2018-05-02T02:26:49.778Z,0.00
2018-05-02T02:27:49.682Z,0.00
2018-05-02T02:28:49.603Z,0.00
2018-05-02T02:29:49.514Z,0.00
2018-05-02T02:30:49.444Z,0.00
2018-05-02T02:31:49.354Z,0.00
2018-05-02T02:32:49.283Z,0.00
2018-05-02T02:33:49.191Z,0.00
2018-05-02T02:34:49.108Z,0.00
2018-05-02T02:35:49.016Z,0.00
2018-05-02T02:36:48.941Z,0.00
2018-05-02T02:37:48.856Z,0.00
2018-05-02T02:38:48.779Z,0.00
2018-05-02T02:39:48.697Z,0.00
2018-05-02T02:40:48.605Z,0.00
2018-05-02T02:41:48.530Z,0.00
2018-05-02T02:42:48.441Z,0.00
2018-05-02T02:43:48.356Z,0.00
2018-05-02T02:44:48.281Z,0.00
2018-05-02T02:45:48.192Z,0.00
2018-05-02T02:46:48.107Z,0.00
2018-05-02T02:47:48.031Z,0.00
2018-05-02T02:48:47.943Z,0.00
2018-05-02T02:49:47.867Z,0.00
2018-05-02T02:50:47.781Z,0.00
2018-05-02T02:51:47.692Z,0.00
2018-05-02T02:52:47.617Z,0.00
2018-05-02T02:53:47.531Z,0.00
2018-05-02T02:54:47.444Z,0.00
2018-05-02T02:55:47.369Z,0.00
2018-05-02T02:56:47.283Z,0.00
2018-05-02T02:57:47.206Z,0.00
2018-05-02T02:58:47.118Z,0.00
2018-05-02T02:59:47.043Z,0.00
2018-05-02T03:00:46.956Z,0.00
2018-05-02T03:01:46.868Z,0.00
2018-05-02T03:02:46.793Z,4.00
2018-05-02T03:03:46.707Z,4.00
2018-05-02T03:04:46.619Z,0.00
2018-05-02T03:05:46.547Z,0.00
2018-05-02T03:06:46.461Z,4.00
2018-05-02T03:07:46.373Z,4.00
2018-05-02T03:08:46.295Z,8.00
2018-05-02T03:09:46.208Z,4.00
2018-05-02T03:10:46.134Z,8.00
2018-05-02T03:11:46.045Z,8.00
2018-05-02T03:12:45.957Z,12.00
2018-05-02T03:13:45.885Z,12.00
2018-05-02T03:14:45.794Z,12.00
2018-05-02T03:15:45.711Z,12.00
2018-05-02T03:16:45.636Z,12.00
2018-05-02T03:17:45.546Z,16.00
2018-05-02T03:18:45.470Z,16.00
2018-05-02T03:19:45.383Z,20.00
2018-05-02T03:20:45.295Z,24.00
2018-05-02T03:21:45.222Z,28.00
2018-05-02T03:22:45.134Z,28.00
2018-05-02T03:23:45.049Z,36.00
2018-05-02T03:24:44.970Z,40.00
2018-05-02T03:25:44.884Z,40.00
2018-05-02T03:26:44.810Z,44.00
2018-05-02T03:27:44.730Z,52.00
2018-05-02T03:28:44.635Z,56.00
2018-05-02T03:29:44.560Z,60.00
2018-05-02T03:30:44.475Z,64.00
2018-05-02T03:31:44.403Z,72.00
2018-05-02T03:32:44.309Z,80.00
2018-05-02T03:33:44.221Z,88.00
2018-05-02T03:34:44.147Z,96.00
2018-05-02T03:35:44.060Z,108.00
2018-05-02T03:36:43.972Z,116.00
2018-05-02T03:37:43.897Z,124.00
2018-05-02T03:38:43.821Z,136.00
2018-05-02T03:39:43.724Z,144.00
2018-05-02T03:40:43.649Z,156.00
2018-05-02T03:41:43.560Z,164.00
2018-05-02T03:42:43.486Z,176.00
2018-05-02T03:43:43.397Z,188.00
2018-05-02T03:44:43.311Z,204.00
2018-05-02T03:45:43.235Z,220.00
2018-05-02T03:46:43.154Z,236.00
2018-05-02T03:47:43.079Z,260.00
2018-05-02T03:48:42.992Z,280.00
2018-05-02T03:49:42.906Z,304.00
2018-05-02T03:50:42.829Z,320.00
2018-05-02T03:51:42.756Z,340.00
2018-05-02T03:52:42.669Z,360.00
2018-05-02T03:53:42.593Z,380.00
2018-05-02T03:54:42.507Z,404.00
2018-05-02T03:55:42.432Z,428.00
2018-05-02T03:56:42.343Z,452.00
2018-05-02T03:57:42.263Z,472.00
2018-05-02T03:58:42.181Z,496.00
2018-05-02T03:59:42.175Z,532.00
2018-05-02T04:00:42.007Z,564.00
2018-05-02T04:01:41.932Z,592.00
2018-05-02T04:02:41.845Z,616.00
2018-05-02T04:03:41.770Z,636.00
2018-05-02T04:04:41.683Z,664.00
2018-05-02T04:05:41.595Z,688.00
2018-05-02T04:06:41.520Z,704.00
2018-05-02T04:07:41.436Z,708.00
2018-05-02T04:08:41.400Z,724.00
2018-05-02T04:09:41.270Z,748.00
2018-05-02T04:10:41.183Z,784.00
2018-05-02T04:11:41.097Z,816.00
2018-05-02T04:12:41.020Z,836.00
2018-05-02T04:13:40.936Z,852.00
2018-05-02T04:14:40.858Z,876.00
2018-05-02T04:15:40.771Z,900.00
2018-05-02T04:16:40.684Z,936.00
2018-05-02T04:17:40.608Z,976.00
2018-05-02T04:18:40.586Z,1024.00
2018-05-02T04:19:40.446Z,1068.00
2018-05-02T04:20:40.359Z,1096.00
2018-05-02T04:21:40.272Z,1132.00
2018-05-02T04:22:40.196Z,1156.00
2018-05-02T04:23:40.110Z,1200.00
2018-05-02T04:24:40.024Z,1276.00
2018-05-02T04:25:39.946Z,1352.00
2018-05-02T04:26:39.860Z,1416.00
2018-05-02T04:27:39.784Z,1420.00
2018-05-02T04:28:39.699Z,1368.00
2018-05-02T04:29:39.612Z,1288.00
2018-05-02T04:30:39.537Z,1236.00
2018-05-02T04:31:39.452Z,1184.00
2018-05-02T04:32:39.373Z,1152.00
2018-05-02T04:33:39.287Z,1148.00
2018-05-02T04:34:39.211Z,1144.00
2018-05-02T04:35:39.123Z,1156.00
2018-05-02T04:36:39.037Z,1164.00
2018-05-02T04:37:38.961Z,1184.00
2018-05-02T04:38:38.875Z,1220.00
2018-05-02T04:39:38.799Z,1240.00
2018-05-02T04:40:38.715Z,1252.00
2018-05-02T04:41:38.625Z,1216.00
2018-05-02T04:42:38.549Z,1196.00
2018-05-02T04:43:38.455Z,1144.00
2018-05-02T04:44:38.381Z,1120.00
2018-05-02T04:45:38.292Z,1116.00
2018-05-02T04:46:38.217Z,1104.00
2018-05-02T04:47:38.142Z,1108.00
2018-05-02T04:48:38.043Z,1144.00
2018-05-02T04:49:37.980Z,1192.00
2018-05-02T04:50:37.882Z,1252.00
2018-05-02T04:51:37.805Z,1280.00
2018-05-02T04:52:37.740Z,1328.00
2018-05-02T04:53:37.643Z,1404.00
2018-05-02T04:54:37.556Z,1420.00
2018-05-02T04:55:37.481Z,1412.00
2018-05-02T04:56:37.394Z,1452.00
2018-05-02T04:57:37.307Z,1644.00
2018-05-02T04:58:37.232Z,1880.00
2018-05-02T04:59:37.196Z,2124.00
2018-05-02T05:00:37.082Z,2316.00
2018-05-02T05:01:36.983Z,2448.00
2018-05-02T05:02:36.907Z,2556.00
2018-05-02T05:03:36.811Z,2616.00
2018-05-02T05:04:36.731Z,2572.00
2018-05-02T05:05:36.644Z,2404.00
2018-05-02T05:06:36.654Z,2296.00
2018-05-02T05:07:36.481Z,2268.00
2018-05-02T05:08:36.394Z,2272.00
2018-05-02T05:09:36.320Z,2160.00
2018-05-02T05:10:36.231Z,2104.00
2018-05-02T05:11:36.169Z,2084.00
2018-05-02T05:12:36.070Z,2056.00
2018-05-02T05:13:35.983Z,2040.00
2018-05-02T05:14:35.907Z,2020.00
2018-05-02T05:15:35.832Z,2008.00
2018-05-02T05:16:35.745Z,1976.00
2018-05-02T05:17:35.658Z,2008.00
2018-05-02T05:18:35.581Z,2112.00
2018-05-02T05:19:35.495Z,2248.00
2018-05-02T05:20:35.420Z,2412.00
2018-05-02T05:21:35.333Z,2916.00
2018-05-02T05:22:35.257Z,2960.00
2018-05-02T05:23:35.170Z,2560.00
2018-05-02T05:24:35.095Z,2488.00
2018-05-02T05:25:35.009Z,2544.00
2018-05-02T05:26:34.933Z,2676.00
2018-05-02T05:27:34.855Z,2752.00
2018-05-02T05:28:34.773Z,2768.00
2018-05-02T05:29:34.683Z,2860.00
2018-05-02T05:30:34.608Z,3204.00
2018-05-02T05:31:34.522Z,3716.00
2018-05-02T05:32:34.447Z,4172.00
2018-05-02T05:33:34.371Z,4584.00
2018-05-02T05:34:34.284Z,4920.00
2018-05-02T05:35:34.199Z,5172.00
2018-05-02T05:36:34.122Z,5276.00
2018-05-02T05:37:34.035Z,5292.00
2018-05-02T05:38:33.962Z,5252.00
2018-05-02T05:39:33.873Z,5220.00
2018-05-02T05:40:33.832Z,5188.00
2018-05-02T05:41:33.709Z,5180.00
2018-05-02T05:42:33.635Z,5180.00
2018-05-02T05:43:33.628Z,5204.00
2018-05-02T05:44:33.474Z,5200.00
2018-05-02T05:45:33.386Z,5244.00
2018-05-02T05:46:33.324Z,5192.00
2018-05-02T05:47:33.239Z,5212.00
2018-05-02T05:48:33.157Z,5272.00
2018-05-02T05:49:33.074Z,5296.00
2018-05-02T05:50:32.985Z,5428.00
2018-05-02T05:51:32.924Z,5584.00
2018-05-02T05:52:32.825Z,5672.00
2018-05-02T05:53:32.751Z,5704.00
2018-05-02T05:54:32.705Z,5776.00
2018-05-02T05:55:32.587Z,5840.00
2018-05-02T05:56:32.513Z,5888.00
2018-05-02T05:57:32.426Z,5944.00
2018-05-02T05:58:32.353Z,6004.00
2018-05-02T05:59:32.263Z,6052.00
2018-05-02T06:00:32.187Z,6148.00
2018-05-02T06:01:32.126Z,6260.00
2018-05-02T06:02:32.029Z,6320.00
2018-05-02T06:03:31.953Z,6304.00
2018-05-02T06:04:31.863Z,6248.00
2018-05-02T06:05:31.787Z,6224.00
2018-05-02T06:06:31.728Z,6284.00
2018-05-02T06:07:31.626Z,6372.00
2018-05-02T06:08:31.555Z,6428.00
2018-05-02T06:09:31.463Z,6496.00
2018-05-02T06:10:31.388Z,6520.00
2018-05-02T06:11:31.327Z,6572.00
2018-05-02T06:12:31.226Z,6532.00
2018-05-02T06:13:31.159Z,6520.00
2018-05-02T06:14:31.065Z,6740.00
2018-05-02T06:15:30.989Z,6920.00
2018-05-02T06:16:30.928Z,6864.00
2018-05-02T06:17:30.828Z,7020.00
2018-05-02T06:18:30.758Z,7032.00
2018-05-02T06:19:30.680Z,7200.00
2018-05-02T06:20:30.590Z,7248.00
2018-05-02T06:21:30.527Z,7236.00
2018-05-02T06:22:30.428Z,7196.00
2018-05-02T06:23:30.360Z,7200.00
2018-05-02T06:24:30.278Z,7312.00
2018-05-02T06:25:30.190Z,7272.00
2018-05-02T06:26:30.129Z,7340.00
2018-05-02T06:27:30.040Z,7396.00
2018-05-02T06:28:29.955Z,7644.00
2018-05-02T06:29:29.880Z,7968.00
2018-05-02T06:30:29.806Z,8128.00
2018-05-02T06:31:29.716Z,8140.00
2018-05-02T06:32:29.641Z,8204.00
2018-05-02T06:33:29.566Z,8268.00
2018-05-02T06:34:29.480Z,8356.00
2018-05-02T06:35:29.404Z,8440.00
2018-05-02T06:36:29.329Z,8384.00
2018-05-02T06:37:29.244Z,8500.00
2018-05-02T06:38:29.167Z,8348.00
2018-05-02T06:39:29.092Z,8312.00
2018-05-02T06:40:29.004Z,8264.00
2018-05-02T06:41:28.930Z,8320.00
2018-05-02T06:42:28.856Z,8568.00
2018-05-02T06:43:28.849Z,8628.00
2018-05-02T06:44:28.693Z,8712.00
2018-05-02T06:45:28.631Z,8684.00
2018-05-02T06:46:28.530Z,9024.00
2018-05-02T06:47:28.458Z,9316.00
2018-05-02T06:48:28.380Z,9372.00
2018-05-02T06:49:28.293Z,9412.00
2018-05-02T06:50:28.223Z,9572.00
2018-05-02T06:51:28.144Z,9612.00
2018-05-02T06:52:28.057Z,9668.00
2018-05-02T06:53:27.981Z,9748.00
2018-05-02T06:54:27.910Z,10076.00
2018-05-02T06:55:27.835Z,10240.00
2018-05-02T06:56:27.744Z,10420.00
2018-05-02T06:57:27.669Z,10456.00
2018-05-02T06:58:27.594Z,10480.00
2018-05-02T06:59:27.520Z,10752.00
2018-05-02T07:00:27.433Z,10760.00
2018-05-02T07:01:27.359Z,10836.00
2018-05-02T07:02:27.283Z,10804.00
2018-05-02T07:03:27.194Z,10820.00
2018-05-02T07:04:27.120Z,10700.00
2018-05-02T07:05:27.045Z,10632.00
2018-05-02T07:06:26.960Z,10664.00
2018-05-02T07:07:26.883Z,10884.00
2018-05-02T07:08:26.809Z,10552.00
2018-05-02T07:09:26.736Z,10356.00
2018-05-02T07:10:26.645Z,10300.00
2018-05-02T07:11:26.571Z,10156.00
2018-05-02T07:12:26.495Z,10196.00
2018-05-02T07:13:26.509Z,10400.00
2018-05-02T07:14:26.334Z,10384.00
2018-05-02T07:15:26.259Z,10412.00
2018-05-02T07:16:26.184Z,10532.00
2018-05-02T07:17:26.110Z,11056.00
2018-05-02T07:18:26.021Z,11192.00
2018-05-02T07:19:25.959Z,11864.00
2018-05-02T07:20:25.871Z,11820.00
2018-05-02T07:21:25.796Z,11312.00
2018-05-02T07:22:25.721Z,10896.00
2018-05-02T07:23:25.635Z,11468.00
2018-05-02T07:24:25.572Z,11460.00
2018-05-02T07:25:25.485Z,12268.00
2018-05-02T07:26:25.411Z,12672.00
2018-05-02T07:27:25.323Z,12908.00
2018-05-02T07:28:25.261Z,11980.00
2018-05-02T07:29:25.172Z,16512.00
2018-05-02T07:30:25.098Z,11836.00
2018-05-02T07:31:25.025Z,12624.00
2018-05-02T07:32:24.938Z,12304.00
2018-05-02T07:33:24.861Z,12872.00
2018-05-02T07:34:24.786Z,12828.00
2018-05-02T07:35:24.712Z,12904.00
2018-05-02T07:36:24.625Z,12948.00
2018-05-02T07:37:24.566Z,13672.00
2018-05-02T07:38:24.474Z,13956.00
2018-05-02T07:39:24.398Z,14220.00
2018-05-02T07:40:24.324Z,14636.00
2018-05-02T07:41:24.255Z,12976.00
2018-05-02T07:42:24.174Z,13488.00
2018-05-02T07:43:24.088Z,13628.00
2018-05-02T07:44:24.013Z,14024.00
2018-05-02T07:45:23.938Z,13800.00
2018-05-02T07:46:23.863Z,14660.00
2018-05-02T07:47:23.788Z,15236.00
2018-05-02T07:48:23.713Z,15116.00
2018-05-02T07:49:23.643Z,14872.00
2018-05-02T07:50:23.554Z,16084.00
2018-05-02T07:51:23.476Z,15520.00
2018-05-02T07:52:23.413Z,14524.00
2018-05-02T07:53:23.325Z,15264.00
2018-05-02T07:54:23.250Z,14944.00
2018-05-02T07:55:23.197Z,14604.00
2018-05-02T07:56:23.124Z,14004.00
2018-05-02T07:57:23.025Z,14520.00
2018-05-02T07:58:22.951Z,14276.00
2018-05-02T07:59:22.876Z,13868.00
2018-05-02T08:00:22.803Z,15540.00
2018-05-02T08:01:22.725Z,14596.00
2018-05-02T08:02:22.651Z,14900.00
2018-05-02T08:03:22.576Z,15044.00
2018-05-02T08:04:22.502Z,15052.00
2018-05-02T08:05:22.439Z,14760.00
2018-05-02T08:06:22.351Z,15268.00
2018-05-02T08:07:22.277Z,15392.00
2018-05-02T08:08:22.201Z,15524.00
2018-05-02T08:09:22.150Z,15236.00
2018-05-02T08:10:22.053Z,15440.00
2018-05-02T08:11:21.976Z,15784.00
2018-05-02T08:12:21.890Z,15880.00
2018-05-02T08:13:21.816Z,15948.00
2018-05-02T08:14:21.740Z,16928.00
2018-05-02T08:15:21.676Z,19744.00
2018-05-02T08:16:21.613Z,19072.00
2018-05-02T08:17:21.516Z,19872.00
2018-05-02T08:18:21.452Z,20160.00
2018-05-02T08:19:21.378Z,21632.00
2018-05-02T08:20:21.302Z,20576.00
2018-05-02T08:21:21.233Z,21632.00
2018-05-02T08:22:21.152Z,16004.00
2018-05-02T08:23:21.078Z,19648.00
2018-05-02T08:24:21.004Z,17632.00
2018-05-02T08:25:20.941Z,18432.00
2018-05-02T08:26:20.853Z,17888.00
2018-05-02T08:27:20.778Z,16136.00
2018-05-02T08:28:20.703Z,14356.00
2018-05-02T08:29:20.642Z,14832.00
2018-05-02T08:30:20.554Z,15012.00
2018-05-02T08:31:20.492Z,14308.00
2018-05-02T08:32:20.404Z,13548.00
2018-05-02T08:33:20.331Z,13964.00
2018-05-02T08:34:20.268Z,12788.00
2018-05-02T08:35:20.192Z,14844.00
2018-05-02T08:36:20.117Z,13940.00
2018-05-02T08:37:20.044Z,13832.00
2018-05-02T08:38:19.969Z,14024.00
2018-05-02T08:39:19.893Z,13596.00
2018-05-02T08:40:19.823Z,14136.00
2018-05-02T08:41:19.743Z,14640.00
2018-05-02T08:42:19.694Z,14568.00
2018-05-02T08:43:19.605Z,14464.00
2018-05-02T08:44:19.530Z,15176.00
2018-05-02T08:45:19.455Z,15384.00
2018-05-02T08:46:19.394Z,14716.00
2018-05-02T08:47:19.308Z,14548.00
2018-05-02T08:48:19.233Z,15592.00
2018-05-02T08:49:19.156Z,15832.00
2018-05-02T08:50:19.095Z,16476.00
2018-05-02T08:51:19.023Z,16928.00
2018-05-02T08:52:18.945Z,16832.00
2018-05-02T08:53:18.871Z,16356.00
2018-05-02T08:54:18.795Z,16060.00
2018-05-02T08:55:18.721Z,15480.00
2018-05-02T08:56:18.645Z,15056.00
2018-05-02T08:57:18.576Z,15204.00
2018-05-02T08:58:18.495Z,15268.00
2018-05-02T08:59:18.435Z,14736.00
2018-05-02T09:00:18.365Z,14560.00
2018-05-02T09:01:18.286Z,13672.00
2018-05-02T09:02:18.207Z,12828.00
2018-05-02T09:03:18.136Z,12340.00
2018-05-02T09:04:18.058Z,11528.00
2018-05-02T09:05:17.982Z,11236.00
2018-05-02T09:06:17.907Z,11052.00
2018-05-02T09:07:17.838Z,10580.00
2018-05-02T09:08:17.764Z,9944.00
2018-05-02T09:09:17.684Z,9172.00
2018-05-02T09:10:17.608Z,8520.00
2018-05-02T09:11:17.533Z,8256.00
2018-05-02T09:12:17.458Z,8000.00
2018-05-02T09:13:17.387Z,7676.00
2018-05-02T09:14:17.308Z,7304.00
2018-05-02T09:15:17.234Z,7080.00
2018-05-02T09:16:17.161Z,7036.00
2018-05-02T09:17:17.084Z,6844.00
2018-05-02T09:18:17.012Z,6536.00
2018-05-02T09:19:16.934Z,6128.00
2018-05-02T09:20:16.847Z,5848.00
2018-05-02T09:21:16.772Z,6164.00
2018-05-02T09:22:16.698Z,6420.00
2018-05-02T09:23:16.633Z,6072.00
2018-05-02T09:24:16.547Z,6260.00
2018-05-02T09:25:16.473Z,6356.00
2018-05-02T09:26:16.398Z,6676.00
2018-05-02T09:27:16.312Z,7100.00
2018-05-02T09:28:16.236Z,6864.00
2018-05-02T09:29:16.160Z,6264.00
2018-05-02T09:30:16.098Z,6192.00
2018-05-02T09:31:16.015Z,5784.00
2018-05-02T09:32:15.935Z,5508.00
2018-05-02T09:33:15.849Z,5868.00
2018-05-02T09:34:15.773Z,6592.00
2018-05-02T09:35:15.699Z,7108.00
2018-05-02T09:36:15.624Z,6996.00
2018-05-02T09:37:15.549Z,6852.00
2018-05-02T09:38:15.473Z,6824.00
2018-05-02T09:39:15.386Z,6864.00
2018-05-02T09:40:15.328Z,6512.00
2018-05-02T09:41:15.236Z,6256.00
2018-05-02T09:42:15.161Z,6192.00
2018-05-02T09:43:15.086Z,6248.00
2018-05-02T09:44:15.016Z,6308.00
2018-05-02T09:45:14.925Z,6344.00
2018-05-02T09:46:14.850Z,6432.00
2018-05-02T09:47:14.776Z,6796.00
2018-05-02T09:48:14.688Z,7264.00
2018-05-02T09:49:14.625Z,7504.00
2018-05-02T09:50:14.537Z,7748.00
2018-05-02T09:51:14.462Z,8176.00
2018-05-02T09:52:14.387Z,8724.00
2018-05-02T09:53:14.301Z,9064.00
2018-05-02T09:54:14.226Z,8848.00
2018-05-02T09:55:14.150Z,8560.00
2018-05-02T09:56:14.076Z,8936.00
2018-05-02T09:57:13.989Z,10084.00
2018-05-02T09:58:14.003Z,11280.00
2018-05-02T09:59:13.838Z,11192.00
2018-05-02T10:00:13.763Z,10180.00
2018-05-02T10:01:13.688Z,9512.00
2018-05-02T10:02:13.601Z,8424.00
2018-05-02T10:03:13.532Z,7688.00
2018-05-02T10:04:13.451Z,7300.00
2018-05-02T10:05:13.377Z,7040.00
2018-05-02T10:06:13.289Z,7308.00
2018-05-02T10:07:13.214Z,8128.00
2018-05-02T10:08:13.139Z,8840.00
2018-05-02T10:09:13.067Z,9388.00
2018-05-02T10:10:12.989Z,9836.00
2018-05-02T10:11:12.910Z,9712.00
2018-05-02T10:12:12.828Z,9552.00
2018-05-02T10:13:12.752Z,9404.00
2018-05-02T10:14:12.678Z,9880.00
2018-05-02T10:15:12.602Z,10504.00
2018-05-02T10:16:12.514Z,10588.00
2018-05-02T10:17:12.440Z,10016.00
2018-05-02T10:18:12.378Z,9832.00
2018-05-02T10:19:12.290Z,10288.00
2018-05-02T10:20:12.204Z,11020.00
2018-05-02T10:21:12.129Z,11392.00
2018-05-02T10:22:12.055Z,11252.00
2018-05-02T10:23:11.979Z,10904.00
2018-05-02T10:24:11.906Z,11000.00
2018-05-02T10:25:11.817Z,11608.00
2018-05-02T10:26:11.743Z,12564.00
2018-05-02T10:27:11.666Z,13060.00
2018-05-02T10:28:11.591Z,12896.00
2018-05-02T10:29:11.516Z,12296.00
2018-05-02T10:30:11.432Z,11904.00
2018-05-02T10:31:11.353Z,11992.00
2018-05-02T10:32:11.279Z,11856.00
2018-05-02T10:33:11.207Z,11132.00
2018-05-02T10:34:11.134Z,10672.00
2018-05-02T10:35:11.055Z,10892.00
2018-05-02T10:36:10.967Z,11932.00
2018-05-02T10:37:10.892Z,13188.00
2018-05-02T10:38:10.816Z,13944.00
2018-05-02T10:39:10.746Z,14536.00
2018-05-02T10:40:10.668Z,14372.00
2018-05-02T10:41:10.582Z,13760.00
2018-05-02T10:42:10.508Z,13252.00
2018-05-02T10:43:10.502Z,13316.00
2018-05-02T10:44:10.355Z,13848.00
2018-05-02T10:45:10.282Z,14296.00
2018-05-02T10:46:10.208Z,14660.00
2018-05-02T10:47:10.132Z,14740.00
2018-05-02T10:48:10.043Z,14692.00
2018-05-02T10:49:09.970Z,14772.00
2018-05-02T10:50:09.893Z,14744.00
2018-05-02T10:51:09.818Z,14288.00
2018-05-02T10:52:09.744Z,13900.00
2018-05-02T10:53:09.683Z,13432.00
2018-05-02T10:54:09.596Z,13564.00
2018-05-02T10:55:09.510Z,14092.00
2018-05-02T10:56:09.432Z,13792.00
2018-05-02T10:57:09.358Z,12144.00
2018-05-02T10:58:09.283Z,10280.00
2018-05-02T10:59:09.212Z,9396.00
2018-05-02T11:00:09.135Z,11300.00
2018-05-02T11:01:09.058Z,14164.00
2018-05-02T11:02:08.982Z,15164.00
2018-05-02T11:03:08.896Z,15912.00
2018-05-02T11:04:08.820Z,16664.00
2018-05-02T11:05:08.745Z,19520.00
2018-05-02T11:06:08.670Z,14616.00
2018-05-02T11:07:08.596Z,12752.00
2018-05-02T11:08:08.520Z,13264.00
2018-05-02T11:09:08.446Z,14232.00
2018-05-02T11:10:08.371Z,14168.00
2018-05-02T11:11:08.296Z,13496.00
2018-05-02T11:12:08.210Z,15160.00
2018-05-02T11:13:08.135Z,16464.00
2018-05-02T11:14:08.061Z,19264.00
2018-05-02T11:15:07.987Z,17952.00
2018-05-02T11:16:07.911Z,16152.00
2018-05-02T11:17:07.835Z,15968.00
2018-05-02T11:18:07.760Z,16220.00
2018-05-02T11:19:07.685Z,16108.00
2018-05-02T11:20:07.610Z,15704.00
2018-05-02T11:21:07.539Z,14284.00
2018-05-02T11:22:07.462Z,14520.00
2018-05-02T11:23:07.386Z,15484.00
2018-05-02T11:24:07.310Z,16228.00
2018-05-02T11:25:07.223Z,20320.00
2018-05-02T11:26:07.148Z,19328.00
2018-05-02T11:27:07.073Z,18944.00
2018-05-02T11:28:07.010Z,17216.00
2018-05-02T11:29:06.924Z,15420.00
2018-05-02T11:30:06.848Z,14808.00
2018-05-02T11:31:06.775Z,15104.00
2018-05-02T11:32:06.699Z,15372.00
2018-05-02T11:33:06.623Z,15508.00
2018-05-02T11:34:06.549Z,15476.00
2018-05-02T11:35:06.474Z,15660.00
2018-05-02T11:36:06.399Z,15768.00
2018-05-02T11:37:06.324Z,15564.00
2018-05-02T11:38:06.263Z,14500.00
2018-05-02T11:39:06.174Z,11432.00
2018-05-02T11:40:06.100Z,9356.00
2018-05-02T11:41:06.028Z,8864.00
2018-05-02T11:42:05.938Z,8352.00
2018-05-02T11:43:05.862Z,7752.00
2018-05-02T11:44:05.793Z,7256.00
2018-05-02T11:45:05.713Z,7020.00
2018-05-02T11:46:05.639Z,6800.00
2018-05-02T11:47:05.562Z,6620.00
2018-05-02T11:48:05.492Z,6556.00
2018-05-02T11:49:05.413Z,6544.00
2018-05-02T11:50:05.338Z,6636.00
2018-05-02T11:51:05.264Z,6800.00
2018-05-02T11:52:05.179Z,7088.00
2018-05-02T11:53:05.105Z,7316.00
2018-05-02T11:54:05.025Z,7088.00
2018-05-02T11:55:04.951Z,6584.00
2018-05-02T11:56:04.876Z,6120.00
2018-05-02T11:57:04.801Z,5560.00
2018-05-02T11:58:04.733Z,5072.00
2018-05-02T11:59:04.651Z,4828.00
2018-05-02T12:00:04.567Z,4716.00
2018-05-02T12:01:04.490Z,4684.00
2018-05-02T12:02:04.415Z,4780.00
2018-05-02T12:03:04.340Z,4996.00
2018-05-02T12:04:04.264Z,5220.00
2018-05-02T12:05:04.190Z,5404.00
2018-05-02T12:06:04.101Z,5528.00
2018-05-02T12:07:04.027Z,5560.00
2018-05-02T12:08:03.952Z,5568.00
2018-05-02T12:09:03.891Z,5568.00
2018-05-02T12:10:03.802Z,5560.00
2018-05-02T12:11:03.715Z,5536.00
2018-05-02T12:12:03.640Z,5540.00
2018-05-02T12:13:03.567Z,5624.00
2018-05-02T12:14:03.491Z,5784.00
2018-05-02T12:15:03.404Z,5896.00
2018-05-02T12:16:03.338Z,5864.00
2018-05-02T12:17:03.254Z,5704.00
2018-05-02T12:18:03.179Z,5604.00
2018-05-02T12:19:03.109Z,5592.00
2018-05-02T12:20:03.017Z,5596.00
2018-05-02T12:21:02.953Z,5564.00
2018-05-02T12:22:02.871Z,5528.00
2018-05-02T12:23:02.792Z,5404.00
2018-05-02T12:24:02.705Z,5144.00
2018-05-02T12:25:02.632Z,4868.00
2018-05-02T12:26:02.554Z,4716.00
2018-05-02T12:27:02.478Z,4656.00
2018-05-02T12:28:02.395Z,4640.00
2018-05-02T12:29:02.317Z,4768.00
2018-05-02T12:30:02.246Z,4948.00
2018-05-02T12:31:02.172Z,5072.00
2018-05-02T12:32:02.079Z,5112.00
2018-05-02T12:33:02.005Z,4972.00
2018-05-02T12:34:01.931Z,4896.00
2018-05-02T12:35:01.855Z,4964.00
2018-05-02T12:36:01.769Z,5084.00
2018-05-02T12:37:01.693Z,5184.00
2018-05-02T12:38:01.869Z,5284.00
2018-05-02T12:39:01.544Z,5428.00
2018-05-02T12:40:01.457Z,5584.00
2018-05-02T12:41:01.382Z,5772.00
2018-05-02T12:42:01.308Z,5848.00
2018-05-02T12:43:01.230Z,5988.00
2018-05-02T12:44:01.145Z,6208.00
2018-05-02T12:45:01.069Z,6308.00
2018-05-02T12:46:00.996Z,6556.00
2018-05-02T12:47:00.920Z,7164.00
2018-05-02T12:48:00.832Z,7448.00
2018-05-02T12:49:00.769Z,7024.00
2018-05-02T12:50:00.681Z,6192.00
2018-05-02T12:51:00.606Z,5648.00
2018-05-02T12:52:00.535Z,5784.00
2018-05-02T12:53:00.446Z,6680.00
2018-05-02T12:54:00.371Z,7832.00
2018-05-02T12:55:00.284Z,8552.00
2018-05-02T12:56:00.284Z,8680.00